createdAt,value
2022-07-25T00:01:46.975Z,100503.81
2022-07-25T00:04:14.867Z,100502.09
2022-07-25T00:06:43.021Z,100496.47
2022-07-25T00:09:10.095Z,100500.00
2022-07-25T00:11:37.185Z,100503.78
2022-07-25T00:14:05.207Z,100504.59
2022-07-25T00:16:32.953Z,100503.34
2022-07-25T00:18:59.726Z,100504.16
2022-07-25T00:21:26.847Z,100503.69
2022-07-25T00:23:53.784Z,100501.31
2022-07-25T00:26:20.576Z,100496.97
2022-07-25T00:28:47.457Z,100499.09
2022-07-25T00:31:14.239Z,100482.28
2022-07-25T00:33:41.321Z,100486.69
2022-07-25T00:36:09.032Z,100484.16
2022-07-25T00:38:35.784Z,100480.38
2022-07-25T00:41:04.211Z,100479.12
2022-07-25T00:43:31.883Z,100482.59
2022-07-25T00:45:59.481Z,100477.41
2022-07-25T00:48:29.049Z,100480.31
2022-07-25T00:50:56.916Z,100483.38
2022-07-25T00:53:25.106Z,100484.25
2022-07-25T00:55:52.667Z,100482.03
2022-07-25T00:58:19.447Z,100483.63
2022-07-25T01:00:46.765Z,100475.59
2022-07-25T01:03:13.903Z,100476.66
2022-07-25T01:05:41.018Z,100473.34
2022-07-25T01:08:08.370Z,100477.63
2022-07-25T01:10:35.966Z,100473.25
2022-07-25T01:13:03.027Z,100474.25
2022-07-25T01:15:30.168Z,100464.72
2022-07-25T01:17:57.025Z,100461.56
2022-07-25T01:20:28.781Z,100467.41
2022-07-25T01:22:56.954Z,100470.63
2022-07-25T01:25:24.627Z,100460.25
2022-07-25T01:27:55.742Z,100457.09
2022-07-25T01:30:25.150Z,100461.66
2022-07-25T01:32:52.564Z,100457.91
2022-07-25T01:35:20.113Z,100461.22
2022-07-25T01:37:47.056Z,100463.59
2022-07-25T01:40:14.950Z,100463.53
2022-07-25T01:42:42.804Z,100453.47
2022-07-25T01:45:10.816Z,100458.66
2022-07-25T01:47:38.226Z,100454.81
2022-07-25T01:50:05.820Z,100459.38
2022-07-25T01:52:32.855Z,100449.56
2022-07-25T01:54:59.687Z,100447.13
2022-07-25T01:57:30.118Z,100444.91
2022-07-25T01:59:58.816Z,100450.00
2022-07-25T02:02:25.896Z,100446.13
2022-07-25T02:04:53.064Z,100449.84
2022-07-25T02:07:20.239Z,100448.84
2022-07-25T02:09:47.103Z,100441.34
2022-07-25T02:12:13.952Z,100451.47
2022-07-25T02:14:41.087Z,100457.66
2022-07-25T02:17:08.205Z,100461.88
2022-07-25T02:19:35.147Z,100451.13
2022-07-25T02:22:02.076Z,100457.81
2022-07-25T02:24:28.895Z,100467.63
2022-07-25T02:26:55.666Z,100455.94
2022-07-25T02:29:22.527Z,100455.13
2022-07-25T02:31:51.997Z,100457.47
2022-07-25T02:34:19.036Z,100454.66
2022-07-25T02:36:46.057Z,100455.75
2022-07-25T02:39:12.956Z,100453.06
2022-07-25T02:41:39.909Z,100459.12
2022-07-25T02:44:07.152Z,100468.72
2022-07-25T02:46:34.261Z,100466.53
2022-07-25T02:49:01.372Z,100462.62
2022-07-25T02:51:28.145Z,100469.62
2022-07-25T02:53:57.713Z,100465.88
2022-07-25T02:56:26.267Z,100469.66
2022-07-25T02:58:56.760Z,100478.03
2022-07-25T03:01:23.736Z,100478.19
2022-07-25T03:03:50.664Z,100475.16
2022-07-25T03:06:17.624Z,100477.13
2022-07-25T03:08:44.485Z,100480.41
2022-07-25T03:11:11.955Z,100484.75
2022-07-25T03:13:38.705Z,100482.22
2022-07-25T03:16:06.873Z,100477.31
2022-07-25T03:18:33.657Z,100477.75
2022-07-25T03:21:00.522Z,100477.31
2022-07-25T03:23:28.510Z,100473.34
2022-07-25T03:25:56.261Z,100480.09
2022-07-25T03:28:24.854Z,100479.84
2022-07-25T03:30:52.700Z,100478.88
2022-07-25T03:33:19.621Z,100480.41
2022-07-25T03:35:46.598Z,100482.56
2022-07-25T03:38:13.384Z,100479.97
2022-07-25T03:40:40.256Z,100471.84
2022-07-25T03:43:07.016Z,100478.47
2022-07-25T03:45:33.869Z,100477.84
2022-07-25T03:48:00.696Z,100485.09
2022-07-25T03:50:27.484Z,100481.34
2022-07-25T03:52:54.244Z,100489.38
2022-07-25T03:55:21.056Z,100483.34
2022-07-25T03:57:47.776Z,100482.28
2022-07-25T04:00:14.749Z,100476.78
2022-07-25T04:02:41.642Z,100479.75
2022-07-25T04:05:09.451Z,100482.38
2022-07-25T04:07:36.645Z,100477.31
2022-07-25T04:10:05.359Z,100473.78
2022-07-25T04:12:32.265Z,100469.59
2022-07-25T04:14:58.996Z,100463.03
2022-07-25T04:17:26.015Z,100468.78
2022-07-25T04:19:52.799Z,100470.94
2022-07-25T04:22:19.642Z,100469.19
2022-07-25T04:24:46.546Z,100474.50
2022-07-25T04:27:13.253Z,100465.34
2022-07-25T04:29:40.085Z,100463.19
2022-07-25T04:32:07.140Z,100466.41
2022-07-25T04:34:33.917Z,100460.19
2022-07-25T04:37:00.636Z,100460.25
2022-07-25T04:39:27.445Z,100452.72
2022-07-25T04:41:54.185Z,100458.09
2022-07-25T04:44:21.086Z,100455.75
2022-07-25T04:46:47.876Z,100460.50
2022-07-25T04:49:14.663Z,100453.38
2022-07-25T04:51:41.455Z,100458.50
2022-07-25T04:54:09.892Z,100449.25
2022-07-25T04:56:37.095Z,100452.44
2022-07-25T04:59:06.828Z,100456.03
2022-07-25T05:01:34.870Z,100452.03
2022-07-25T05:04:02.050Z,100451.28
2022-07-25T05:06:28.981Z,100450.06
2022-07-25T05:08:55.834Z,100443.66
2022-07-25T05:11:22.774Z,100444.37
2022-07-25T05:13:49.627Z,100449.06
2022-07-25T05:16:16.606Z,100436.66
2022-07-25T05:18:43.594Z,100446.87
2022-07-25T05:21:14.207Z,100448.44
2022-07-25T05:23:41.144Z,100444.56
2022-07-25T05:26:08.066Z,100446.38
2022-07-25T05:28:34.952Z,100441.34
2022-07-25T05:31:01.862Z,100438.97
2022-07-25T05:33:28.714Z,100433.03
2022-07-25T05:35:55.690Z,100434.72
2022-07-25T05:38:26.604Z,100433.75
2022-07-25T05:40:53.445Z,100423.50
2022-07-25T05:43:20.393Z,100428.47
2022-07-25T05:45:50.283Z,100426.06
2022-07-25T05:48:17.144Z,100419.69
2022-07-25T05:50:46.064Z,100416.94
2022-07-25T05:53:12.886Z,100419.00
2022-07-25T05:55:40.127Z,100420.19
2022-07-25T05:58:07.676Z,100412.53
2022-07-25T06:00:34.491Z,100415.28
2022-07-25T06:03:01.433Z,100420.94
2022-07-25T06:05:28.486Z,100419.03
2022-07-25T06:07:55.290Z,100413.13
2022-07-25T06:10:22.527Z,100413.66
2022-07-25T06:12:49.505Z,100412.50
2022-07-25T06:15:22.391Z,100423.31
2022-07-25T06:17:53.276Z,100420.97
2022-07-25T06:20:20.295Z,100421.88
2022-07-25T06:22:47.174Z,100417.66
2022-07-25T06:25:14.265Z,100410.44
2022-07-25T06:27:48.605Z,100409.41
2022-07-25T06:30:20.292Z,100415.75
2022-07-25T06:32:48.993Z,100413.22
2022-07-25T06:35:16.636Z,100408.62
2022-07-25T06:37:43.425Z,100407.28
2022-07-25T06:40:10.806Z,100401.78
2022-07-25T06:42:47.914Z,100399.72
2022-07-25T06:45:15.856Z,100403.94
2022-07-25T06:47:44.315Z,100403.41
2022-07-25T06:50:14.362Z,100403.16
2022-07-25T06:52:42.090Z,100400.59
2022-07-25T06:55:10.764Z,100400.34
2022-07-25T06:57:38.014Z,100408.38
2022-07-25T07:00:09.818Z,100400.72
2022-07-25T07:02:52.220Z,100404.09
2022-07-25T07:05:19.793Z,100402.84
2022-07-25T07:07:48.226Z,100403.09
2022-07-25T07:10:16.535Z,100399.03
2022-07-25T07:12:43.715Z,100396.94
2022-07-25T07:15:15.465Z,100396.53
2022-07-25T07:17:44.828Z,100391.06
2022-07-25T07:20:12.052Z,100388.44
2022-07-25T07:22:49.451Z,100392.19
2022-07-25T07:25:21.005Z,100393.03
2022-07-25T07:27:48.983Z,100391.62
2022-07-25T07:30:18.523Z,100390.06
2022-07-25T07:32:49.008Z,100394.34
2022-07-25T07:35:17.028Z,100389.37
2022-07-25T07:37:44.785Z,100389.91
2022-07-25T07:40:17.341Z,100385.94
2022-07-25T07:42:48.583Z,100400.00
2022-07-25T07:45:23.826Z,100393.03
2022-07-25T07:47:52.798Z,100395.41
2022-07-25T07:50:22.633Z,100382.75
2022-07-25T07:52:50.657Z,100387.47
2022-07-25T07:55:36.384Z,100386.50
2022-07-25T07:58:03.903Z,100376.63
2022-07-25T08:00:34.136Z,100376.72
2022-07-25T08:03:01.553Z,100380.94
2022-07-25T08:05:31.537Z,100381.81
2022-07-25T08:07:59.134Z,100382.19
2022-07-25T08:10:29.195Z,100376.66
2022-07-25T08:12:57.342Z,100381.16
2022-07-25T08:15:30.836Z,100375.47
2022-07-25T08:17:57.811Z,100370.75
2022-07-25T08:20:40.127Z,100372.94
2022-07-25T08:23:08.016Z,100371.34
2022-07-25T08:25:37.310Z,100373.22
2022-07-25T08:28:06.497Z,100367.22
2022-07-25T08:30:33.704Z,100379.16
2022-07-25T08:33:05.333Z,100377.47
2022-07-25T08:35:39.315Z,100364.09
2022-07-25T08:38:07.008Z,100360.09
2022-07-25T08:40:34.686Z,100358.63
2022-07-25T08:43:01.645Z,100359.09
2022-07-25T08:45:29.187Z,100355.16
2022-07-25T08:47:56.823Z,100353.81
2022-07-25T08:50:28.790Z,100362.06
2022-07-25T08:53:16.260Z,100366.13
2022-07-25T08:55:46.944Z,100363.41
2022-07-25T08:58:21.563Z,100350.50
2022-07-25T09:00:50.458Z,100351.59
2022-07-25T09:03:19.723Z,100347.94
2022-07-25T09:05:46.868Z,100338.16
2022-07-25T09:08:17.617Z,100342.16
2022-07-25T09:10:52.567Z,100336.47
2022-07-25T09:13:22.468Z,100343.88
2022-07-25T09:15:52.229Z,100346.38
2022-07-25T09:18:24.555Z,100339.03
2022-07-25T09:20:54.937Z,100339.19
2022-07-25T09:23:32.060Z,100332.53
2022-07-25T09:26:29.336Z,100335.03
2022-07-25T09:28:57.205Z,100320.00
2022-07-25T09:31:33.234Z,100322.81
2022-07-25T09:34:01.880Z,100313.56
2022-07-25T09:36:28.956Z,100319.72
2022-07-25T09:39:13.242Z,100304.81
2022-07-25T09:41:42.846Z,100303.16
2022-07-25T09:44:22.445Z,100305.00
2022-07-25T09:46:49.496Z,100296.91
2022-07-25T09:49:16.548Z,100306.53
2022-07-25T09:51:43.703Z,100305.16
2022-07-25T09:54:10.611Z,100300.81
2022-07-25T09:56:37.685Z,100290.91
2022-07-25T09:59:06.281Z,100303.47
2022-07-25T10:01:39.772Z,100293.91
2022-07-25T10:04:22.867Z,100279.03
2022-07-25T10:06:58.005Z,100284.09
2022-07-25T10:09:25.016Z,100289.41
2022-07-25T10:12:13.164Z,100279.56
2022-07-25T10:14:40.217Z,100283.16
2022-07-25T10:17:08.012Z,100280.03
2022-07-25T10:19:52.883Z,100284.13
2022-07-25T10:22:39.706Z,100272.22
2022-07-25T10:25:12.787Z,100265.88
2022-07-25T10:27:53.185Z,100269.75
2022-07-25T10:30:23.514Z,100266.63
2022-07-25T10:32:58.713Z,100263.06
2022-07-25T10:35:27.234Z,100257.91
2022-07-25T10:37:56.388Z,100253.78
2022-07-25T10:40:43.674Z,100251.22
2022-07-25T10:43:25.674Z,100243.78
2022-07-25T10:45:59.389Z,100241.00
2022-07-25T10:48:29.675Z,100235.09
2022-07-25T10:51:04.867Z,100231.72
2022-07-25T10:53:47.447Z,100225.16
2022-07-25T10:56:17.279Z,100221.81
2022-07-25T10:58:48.592Z,100213.78
2022-07-25T11:01:41.524Z,100212.41
2022-07-25T11:04:15.876Z,100217.59
2022-07-25T11:06:43.586Z,100209.87
2022-07-25T11:09:26.947Z,100213.66
2022-07-25T11:11:58.156Z,100210.47
2022-07-25T11:14:34.640Z,100195.97
2022-07-25T11:17:15.564Z,100192.00
2022-07-25T11:19:44.879Z,100191.84
2022-07-25T11:22:12.768Z,100182.34
2022-07-25T11:24:42.438Z,100184.66
2022-07-25T11:27:12.503Z,100175.13
2022-07-25T11:29:41.290Z,100174.84
2022-07-25T11:32:12.037Z,100175.84
2022-07-25T11:34:42.675Z,100167.03
2022-07-25T11:37:12.996Z,100171.00
2022-07-25T11:39:44.784Z,100168.22
2022-07-25T11:42:16.391Z,100165.78
2022-07-25T11:44:48.673Z,100155.56
2022-07-25T11:47:29.419Z,100157.94
2022-07-25T11:50:01.509Z,100146.56
2022-07-25T11:52:32.690Z,100150.31
2022-07-25T11:55:08.794Z,100139.31
2022-07-25T11:57:39.158Z,100138.69
2022-07-25T12:00:11.845Z,100134.84
2022-07-25T12:02:39.267Z,100119.94
2022-07-25T12:05:12.275Z,100126.94
2022-07-25T12:07:54.675Z,100118.22
2022-07-25T12:10:32.664Z,100112.81
2022-07-25T12:13:01.696Z,100112.22
2022-07-25T12:15:36.894Z,100109.69
2022-07-25T12:18:03.975Z,100101.56
2022-07-25T12:20:36.262Z,100100.84
2022-07-25T12:23:11.946Z,100103.59
2022-07-25T12:25:49.591Z,100103.44
2022-07-25T12:28:17.632Z,100092.94
2022-07-25T12:30:46.232Z,100084.44
2022-07-25T12:33:13.915Z,100081.75
2022-07-25T12:35:42.899Z,100078.09
2022-07-25T12:38:11.362Z,100069.44
2022-07-25T12:40:38.118Z,100075.09
2022-07-25T12:43:05.488Z,100067.16
2022-07-25T12:45:32.841Z,100069.22
2022-07-25T12:47:59.799Z,100056.97
2022-07-25T12:50:26.906Z,100060.97
2022-07-25T12:52:54.466Z,100049.63
2022-07-25T12:55:22.068Z,100054.72
2022-07-25T12:57:49.825Z,100049.19
2022-07-25T13:00:19.511Z,100048.56
2022-07-25T13:02:47.025Z,100039.22
2022-07-25T13:05:14.160Z,100031.03
2022-07-25T13:07:41.094Z,100032.38
2022-07-25T13:10:08.553Z,100031.22
2022-07-25T13:12:35.476Z,100020.56
2022-07-25T13:15:02.735Z,100020.97
2022-07-25T13:17:29.594Z,100016.91
2022-07-25T13:19:57.177Z,100016.69
2022-07-25T13:22:25.177Z,100006.72
2022-07-25T13:24:52.865Z,100014.75
2022-07-25T13:27:21.217Z,100006.06
2022-07-25T13:29:54.365Z,100006.78
2022-07-25T13:32:22.620Z,99998.72
2022-07-25T13:34:50.038Z,100003.25
2022-07-25T13:37:16.894Z,99996.38
2022-07-25T13:39:44.010Z,99993.41
2022-07-25T13:42:11.339Z,99985.81
2022-07-25T13:44:38.261Z,99985.22
2022-07-25T13:47:05.405Z,99983.91
2022-07-25T13:49:32.882Z,99975.69
2022-07-25T13:51:59.604Z,99970.44
2022-07-25T13:54:26.506Z,99962.03
2022-07-25T13:56:53.315Z,99964.34
2022-07-25T13:59:21.775Z,99959.00
2022-07-25T14:01:49.686Z,99957.97
2022-07-25T14:04:16.769Z,99955.91
2022-07-25T14:06:43.681Z,99952.19
2022-07-25T14:09:10.858Z,99951.72
2022-07-25T14:11:38.180Z,99946.72
2022-07-25T14:14:04.956Z,99946.06
2022-07-25T14:16:33.967Z,99945.31
2022-07-25T14:19:01.355Z,99939.22
2022-07-25T14:21:28.274Z,99935.47
2022-07-25T14:23:55.206Z,99942.09
2022-07-25T14:26:22.258Z,99938.78
2022-07-25T14:28:49.125Z,99931.66
2022-07-25T14:31:16.190Z,99927.34
2022-07-25T14:33:43.198Z,99920.53
2022-07-25T14:36:10.440Z,99923.13
2022-07-25T14:38:37.503Z,99920.81
2022-07-25T14:41:09.204Z,99914.19
2022-07-25T14:43:39.078Z,99914.84
2022-07-25T14:46:08.091Z,99907.94
2022-07-25T14:49:02.339Z,99906.25
2022-07-25T14:51:33.766Z,99906.41
2022-07-25T14:54:00.604Z,99901.56
2022-07-25T14:56:27.486Z,99908.22
2022-07-25T14:58:54.316Z,99899.12
2022-07-25T15:01:24.539Z,99895.69
2022-07-25T15:03:52.634Z,99889.97
2022-07-25T15:06:19.665Z,99895.09
2022-07-25T15:08:46.598Z,99881.28
2022-07-25T15:11:13.641Z,99887.16
2022-07-25T15:13:40.437Z,99881.16
2022-07-25T15:16:07.413Z,99882.44
2022-07-25T15:18:52.321Z,99873.69
2022-07-25T15:21:21.087Z,99874.84
2022-07-25T15:23:47.853Z,99861.53
2022-07-25T15:26:14.658Z,99869.78
2022-07-25T15:28:41.736Z,99864.94
2022-07-25T15:31:08.565Z,99863.56
2022-07-25T15:33:35.526Z,99857.56
2022-07-25T15:36:02.604Z,99855.91
2022-07-25T15:38:29.586Z,99851.06
2022-07-25T15:40:56.665Z,99856.75
2022-07-25T15:43:24.085Z,99849.63
2022-07-25T15:45:51.398Z,99851.75
2022-07-25T15:48:18.774Z,99842.41
2022-07-25T15:50:48.333Z,99841.00
2022-07-25T15:53:15.838Z,99841.50
2022-07-25T15:55:43.168Z,99836.66
2022-07-25T15:58:11.195Z,99832.56
2022-07-25T16:00:39.851Z,99827.34
2022-07-25T16:03:07.808Z,99833.16
2022-07-25T16:05:35.622Z,99824.06
2022-07-25T16:08:03.633Z,99822.31
2022-07-25T16:10:32.537Z,99824.31
2022-07-25T16:12:59.367Z,99818.37
2022-07-25T16:15:26.502Z,99816.19
2022-07-25T16:18:01.685Z,99819.97
2022-07-25T16:20:29.587Z,99815.53
2022-07-25T16:22:57.987Z,99824.97
2022-07-25T16:25:26.646Z,99816.38
2022-07-25T16:27:54.232Z,99817.75
2022-07-25T16:30:21.734Z,99812.38
2022-07-25T16:32:48.524Z,99813.38
2022-07-25T16:35:15.285Z,99815.53
2022-07-25T16:37:42.759Z,99814.16
2022-07-25T16:40:10.098Z,99814.69
2022-07-25T16:42:37.343Z,99817.63
2022-07-25T16:45:05.116Z,99817.75
2022-07-25T16:47:31.855Z,99811.09
2022-07-25T16:49:58.702Z,99813.66
2022-07-25T16:52:25.715Z,99808.53
2022-07-25T16:54:52.445Z,99808.72
2022-07-25T16:57:20.015Z,99809.25
2022-07-25T16:59:53.552Z,99806.50
2022-07-25T17:02:22.163Z,99807.62
2022-07-25T17:04:51.850Z,99808.00
2022-07-25T17:07:18.666Z,99809.38
2022-07-25T17:09:46.021Z,99815.59
2022-07-25T17:12:12.866Z,99804.81
2022-07-25T17:14:39.665Z,99808.63
2022-07-25T17:17:06.518Z,99811.09
2022-07-25T17:19:36.446Z,99814.41
2022-07-25T17:22:03.476Z,99804.41
2022-07-25T17:24:30.216Z,99808.25
2022-07-25T17:26:56.995Z,99805.63
2022-07-25T17:29:23.876Z,99802.06
2022-07-25T17:31:50.626Z,99802.53
2022-07-25T17:34:17.592Z,99805.00
2022-07-25T17:36:44.716Z,99799.78
2022-07-25T17:39:11.736Z,99794.41
2022-07-25T17:41:38.603Z,99799.56
2022-07-25T17:44:11.371Z,99803.06
2022-07-25T17:46:38.963Z,99799.47
2022-07-25T17:49:05.892Z,99792.88
2022-07-25T17:51:32.724Z,99789.53
2022-07-25T17:53:59.575Z,99793.78
2022-07-25T17:56:26.556Z,99792.88
2022-07-25T17:58:53.386Z,99785.19
2022-07-25T18:01:20.253Z,99777.91
2022-07-25T18:03:47.774Z,99782.16
2022-07-25T18:06:15.176Z,99779.97
2022-07-25T18:08:41.965Z,99785.78
2022-07-25T18:11:08.826Z,99782.53
2022-07-25T18:13:35.615Z,99782.34
2022-07-25T18:16:02.586Z,99783.59
2022-07-25T18:18:29.815Z,99781.75
2022-07-25T18:20:56.627Z,99773.81
2022-07-25T18:23:26.486Z,99780.34
2022-07-25T18:25:53.635Z,99777.63
2022-07-25T18:28:22.076Z,99779.50
2022-07-25T18:30:51.377Z,99777.31
2022-07-25T18:33:19.319Z,99766.94
2022-07-25T18:35:46.255Z,99768.47
2022-07-25T18:38:13.077Z,99778.31
2022-07-25T18:40:39.858Z,99765.63
2022-07-25T18:43:08.957Z,99766.50
2022-07-25T18:45:38.217Z,99762.66
2022-07-25T18:48:06.394Z,99758.88
2022-07-25T18:50:33.180Z,99772.44
2022-07-25T18:53:00.839Z,99761.81
2022-07-25T18:55:27.726Z,99765.53
2022-07-25T18:57:54.576Z,99771.66
2022-07-25T19:00:21.603Z,99766.88
2022-07-25T19:02:48.599Z,99764.19
2022-07-25T19:05:15.417Z,99769.34
2022-07-25T19:07:42.488Z,99773.06
2022-07-25T19:10:10.729Z,99774.09
2022-07-25T19:12:37.957Z,99776.00
2022-07-25T19:15:05.635Z,99772.53
2022-07-25T19:17:37.235Z,99768.00
2022-07-25T19:20:05.278Z,99768.94
2022-07-25T19:22:32.234Z,99779.50
2022-07-25T19:25:01.225Z,99782.53
2022-07-25T19:27:29.055Z,99784.62
2022-07-25T19:29:56.005Z,99783.56
2022-07-25T19:32:22.909Z,99786.34
2022-07-25T19:34:49.816Z,99790.63
2022-07-25T19:37:16.815Z,99790.63
2022-07-25T19:39:43.736Z,99796.13
2022-07-25T19:42:12.612Z,99789.31
2022-07-25T19:44:39.806Z,99790.16
2022-07-25T19:47:11.214Z,99782.38
2022-07-25T19:49:39.976Z,99776.44
2022-07-25T19:52:10.265Z,99785.84
2022-07-25T19:54:37.815Z,99788.31
2022-07-25T19:57:05.165Z,99782.75
2022-07-25T19:59:31.983Z,99776.94
2022-07-25T20:01:59.357Z,99779.56
2022-07-25T20:04:26.391Z,99786.78
2022-07-25T20:06:53.387Z,99781.94
2022-07-25T20:09:20.706Z,99770.69
2022-07-25T20:11:47.647Z,99790.13
2022-07-25T20:14:14.536Z,99770.50
2022-07-25T20:16:41.606Z,99776.09
2022-07-25T20:19:11.417Z,99771.75
2022-07-25T20:21:39.433Z,99766.28
2022-07-25T20:24:06.845Z,99761.22
2022-07-25T20:26:33.761Z,99763.78
2022-07-25T20:29:00.739Z,99764.25
2022-07-25T20:31:27.601Z,99766.81
2022-07-25T20:33:54.478Z,99763.69
2022-07-25T20:36:21.576Z,99768.66
2022-07-25T20:38:48.541Z,99770.63
2022-07-25T20:41:16.267Z,99768.31
2022-07-25T20:43:43.171Z,99766.22
2022-07-25T20:46:10.049Z,99766.41
2022-07-25T20:48:37.362Z,99763.41
2022-07-25T20:51:04.815Z,99767.81
2022-07-25T20:53:32.957Z,99766.38
2022-07-25T20:56:00.008Z,99776.34
2022-07-25T20:58:26.925Z,99776.06
2022-07-25T21:00:53.834Z,99778.75
2022-07-25T21:03:20.683Z,99776.22
2022-07-25T21:05:47.706Z,99775.19
2022-07-25T21:08:15.415Z,99781.31
2022-07-25T21:10:42.338Z,99773.19
2022-07-25T21:13:09.255Z,99780.56
2022-07-25T21:15:36.167Z,99775.19
2022-07-25T21:18:03.054Z,99779.03
2022-07-25T21:20:30.076Z,99774.91
2022-07-25T21:22:56.935Z,99772.34
2022-07-25T21:25:23.831Z,99770.94
2022-07-25T21:27:51.066Z,99771.84
2022-07-25T21:30:18.396Z,99772.53
2022-07-25T21:32:45.425Z,99772.87
2022-07-25T21:35:12.356Z,99776.09
2022-07-25T21:37:40.135Z,99771.22
2022-07-25T21:40:07.765Z,99770.19
2022-07-25T21:42:35.942Z,99772.09
2022-07-25T21:45:02.827Z,99770.94
2022-07-25T21:47:29.595Z,99763.06
2022-07-25T21:50:19.268Z,99774.00
2022-07-25T21:52:51.599Z,99771.56
2022-07-25T21:55:18.495Z,99777.69
2022-07-25T21:57:45.346Z,99776.06
2022-07-25T22:00:13.166Z,99775.84
2022-07-25T22:02:42.426Z,99777.75
2022-07-25T22:05:10.099Z,99780.47
2022-07-25T22:07:36.994Z,99787.72
2022-07-25T22:10:07.594Z,99784.31
2022-07-25T22:12:34.565Z,99783.50
2022-07-25T22:15:01.406Z,99782.06
2022-07-25T22:17:28.295Z,99790.13
2022-07-25T22:20:15.105Z,99797.66
2022-07-25T22:22:41.886Z,99800.66
2022-07-25T22:25:09.138Z,99792.63
2022-07-25T22:27:35.967Z,99792.25
2022-07-25T22:30:03.318Z,99796.94
2022-07-25T22:32:30.263Z,99803.41
2022-07-25T22:34:57.016Z,99800.72
2022-07-25T22:37:23.745Z,99802.31
2022-07-25T22:39:51.956Z,99792.25
2022-07-25T22:42:23.813Z,99805.56
2022-07-25T22:44:50.653Z,99798.66
2022-07-25T22:47:17.468Z,99802.97
2022-07-25T22:49:44.194Z,99793.34
2022-07-25T22:52:10.995Z,99806.34
2022-07-25T22:54:37.802Z,99813.44
2022-07-25T22:57:04.765Z,99810.69
2022-07-25T22:59:31.695Z,99807.88
2022-07-25T23:01:58.535Z,99805.53
2022-07-25T23:04:25.504Z,99807.91
2022-07-25T23:06:52.303Z,99818.31
2022-07-25T23:09:19.266Z,99809.81
2022-07-25T23:11:46.085Z,99806.62
2022-07-25T23:14:12.864Z,99809.78
2022-07-25T23:16:39.908Z,99813.66
2022-07-25T23:19:06.990Z,99813.28
2022-07-25T23:21:34.545Z,99805.16
2022-07-25T23:24:01.395Z,99814.81
2022-07-25T23:26:28.335Z,99818.34
2022-07-25T23:28:55.497Z,99808.50
2022-07-25T23:31:22.435Z,99808.47
2022-07-25T23:33:49.240Z,99802.72
2022-07-25T23:36:16.087Z,99801.53
2022-07-25T23:38:42.815Z,99794.13
2022-07-25T23:41:09.555Z,99794.81
2022-07-25T23:43:56.187Z,99782.88
2022-07-25T23:46:27.932Z,99781.31
2022-07-25T23:48:58.901Z,99784.12
2022-07-25T23:51:26.614Z,99778.91
2022-07-25T23:53:53.721Z,99770.13
2022-07-25T23:56:21.324Z,99769.75
2022-07-25T23:58:50.209Z,99764.81
